Oyvind — LF5804 — position and weather

sailwx.info

Track history (hours):
 
Tides and Currents Weather Stations Pressure Air Temp Water Temp Dewpoint Dewpoint Depression Visibility Wind Speed Wind Dir Waves Ship Positions

Oyvind

Last reported at 2017-Oct-19 07:17 UTC. Time now 2017-Oct-19 22:08 UTC.
Position N 69°45' E 030°03'.

Length 8 m.

Type: Passenger vessel. MMSI: 257006190.

Date/timePositionNaut miles runAvg speedWind from/ knotsBaromVisibWave heightAir tempDewpointWater temp
2017-Oct-19 07:17N 69°45' E 030°03'1 0.1
2017-Oct-18 13:59N 69°44' E 030°02'0 0.2
2017-Oct-18 12:12N 69°44' E 030°02'514.1
2017-Oct-18 11:51N 69°48' E 030°09'513.9
2017-Oct-18 11:29N 69°44' E 030°02'1 0.2
2017-Oct-18 08:47N 69°44' E 030°02'1 1.8
2017-Oct-18 08:28N 69°44' E 030°02'0 0.0
2017-Oct-18 07:58N 69°44' E 030°02'0 0.0
2017-Oct-18 07:28N 69°44' E 030°02'0 0.0
2017-Oct-18 06:58N 69°44' E 030°02'0 0.0
2017-Oct-17 12:21N 69°44' E 030°02'0 0.0
2017-Oct-16 10:00N 69°44' E 030°02'0 0.8
2017-Oct-16 09:29N 69°44' E 030°02'0 0.0
2017-Oct-16 08:59N 69°44' E 030°02'0 0.0
2017-Oct-16 08:29N 69°44' E 030°02'1 2.2
2017-Oct-16 08:00N 69°45' E 030°03'1 0.1
2017-Oct-15 12:14N 69°44' E 030°02'517.9
2017-Oct-15 11:59N 69°48' E 030°09'3 7.0
2017-Oct-15 11:30N 69°45' E 030°04'1 0.4
2017-Oct-15 08:10N 69°44' E 030°02'1 4.8
2017-Oct-15 07:58N 69°45' E 030°03'1 2.7
2017-Oct-15 07:28N 69°44' E 030°02'0 0.0
2017-Oct-15 06:58N 69°44' E 030°02'0 0.0
2017-Oct-15 06:28N 69°44' E 030°02'0 0.0
2017-Oct-14 13:23N 69°44' E 030°02'0 0.3
2017-Oct-14 11:54N 69°44' E 030°02'2 4.8
2017-Oct-14 11:28N 69°43' E 030°06'2 0.7
2017-Oct-14 08:19N 69°44' E 030°02'4 0.1
2017-Oct-12 08:37N 69°41' E 029°54'1 7.6
2017-Oct-12 08:28N 69°42' E 029°55'1 2.4
2017-Oct-12 07:58N 69°41' E 029°54'0 0.0
2017-Oct-12 07:28N 69°41' E 029°54'0 0.0
2017-Oct-12 06:55N 69°41' E 029°54'4 0.1
2017-Oct-10 13:23N 69°44' E 030°02'1 2.8
2017-Oct-10 13:00N 69°45' E 030°03'3 6.7
2017-Oct-10 12:29N 69°48' E 030°03'0 0.4
2017-Oct-10 12:00N 69°48' E 030°03'0 0.4
2017-Oct-10 11:30N 69°48' E 030°02'1 1.1
2017-Oct-10 11:00N 69°48' E 030°01'4 7.4
2017-Oct-10 10:28N 69°44' E 030°02'0 0.0
2017-Oct-10 09:58N 69°44' E 030°02'0 0.2
2017-Oct-10 08:04N 69°44' E 030°02'115.1
2017-Oct-10 08:00N 69°45' E 030°03'1 2.7
2017-Oct-10 07:30N 69°44' E 030°02'0 0.0
2017-Oct-10 07:00N 69°44' E 030°02'0 0.0
2017-Oct-09 11:46N 69°44' E 030°02'1 4.1
2017-Oct-09 11:29N 69°45' E 030°04'1 0.7
2017-Oct-09 09:30N 69°44' E 030°02'0 0.3
2017-Oct-09 08:05N 69°44' E 030°02'112.1
2017-Oct-09 08:00N 69°45' E 030°03'  
Track history (hours):
 
Tides and Currents Weather Stations Pressure Air Temp Water Temp Dewpoint Dewpoint Depression Visibility Wind Speed Wind Dir Waves Ship Positions

Oyvind

Last reported at 2017-Oct-19 07:17 UTC. Time now 2017-Oct-19 22:08 UTC.
Position N 69°45' E 030°03'.

Length 8 m.

Type: Passenger vessel. MMSI: 257006190.

Date/timePositionNaut miles runAvg speedWind from/ knotsBaromVisibWave heightAir tempDewpointWater temp
2017-Oct-19 07:17N 69°45' E 030°03'1 0.1
2017-Oct-18 13:59N 69°44' E 030°02'0 0.2
2017-Oct-18 12:12N 69°44' E 030°02'514.1
2017-Oct-18 11:51N 69°48' E 030°09'513.9
2017-Oct-18 11:29N 69°44' E 030°02'1 0.2
2017-Oct-18 08:47N 69°44' E 030°02'1 1.8
2017-Oct-18 08:28N 69°44' E 030°02'0 0.0
2017-Oct-18 07:58N 69°44' E 030°02'0 0.0
2017-Oct-18 07:28N 69°44' E 030°02'0 0.0
2017-Oct-18 06:58N 69°44' E 030°02'0 0.0
2017-Oct-17 12:21N 69°44' E 030°02'0 0.0
2017-Oct-16 10:00N 69°44' E 030°02'0 0.8
2017-Oct-16 09:29N 69°44' E 030°02'0 0.0
2017-Oct-16 08:59N 69°44' E 030°02'0 0.0
2017-Oct-16 08:29N 69°44' E 030°02'1 2.2
2017-Oct-16 08:00N 69°45' E 030°03'1 0.1
2017-Oct-15 12:14N 69°44' E 030°02'517.9
2017-Oct-15 11:59N 69°48' E 030°09'3 7.0
2017-Oct-15 11:30N 69°45' E 030°04'1 0.4
2017-Oct-15 08:10N 69°44' E 030°02'1 4.8
2017-Oct-15 07:58N 69°45' E 030°03'1 2.7
2017-Oct-15 07:28N 69°44' E 030°02'0 0.0
2017-Oct-15 06:58N 69°44' E 030°02'0 0.0
2017-Oct-15 06:28N 69°44' E 030°02'0 0.0
2017-Oct-14 13:23N 69°44' E 030°02'0 0.3
2017-Oct-14 11:54N 69°44' E 030°02'2 4.8
2017-Oct-14 11:28N 69°43' E 030°06'2 0.7
2017-Oct-14 08:19N 69°44' E 030°02'4 0.1
2017-Oct-12 08:37N 69°41' E 029°54'1 7.6
2017-Oct-12 08:28N 69°42' E 029°55'1 2.4
2017-Oct-12 07:58N 69°41' E 029°54'0 0.0
2017-Oct-12 07:28N 69°41' E 029°54'0 0.0
2017-Oct-12 06:55N 69°41' E 029°54'4 0.1
2017-Oct-10 13:23N 69°44' E 030°02'1 2.8
2017-Oct-10 13:00N 69°45' E 030°03'3 6.7
2017-Oct-10 12:29N 69°48' E 030°03'0 0.4
2017-Oct-10 12:00N 69°48' E 030°03'0 0.4
2017-Oct-10 11:30N 69°48' E 030°02'1 1.1
2017-Oct-10 11:00N 69°48' E 030°01'4 7.4
2017-Oct-10 10:28N 69°44' E 030°02'0 0.0
2017-Oct-10 09:58N 69°44' E 030°02'0 0.2
2017-Oct-10 08:04N 69°44' E 030°02'115.1
2017-Oct-10 08:00N 69°45' E 030°03'1 2.7
2017-Oct-10 07:30N 69°44' E 030°02'0 0.0
2017-Oct-10 07:00N 69°44' E 030°02'0 0.0
2017-Oct-09 11:46N 69°44' E 030°02'1 4.1
2017-Oct-09 11:29N 69°45' E 030°04'1 0.7
2017-Oct-09 09:30N 69°44' E 030°02'0 0.3
2017-Oct-09 08:05N 69°44' E 030°02'112.1
2017-Oct-09 08:00N 69°45' E 030°03'  

Dump ship's entire track history